Time;durP1;ratioP1;P1;durP2;ratioP2;P2;SDS_P1;SDS_P2;PMS_P1;PMS_P2;Temp;Humidity;BMP_temperature;BMP_pressure;BME280_temperature;BME280_humidity;BME280_pressure;Samples;Min_cycle;Max_cycle;Signal;HPM_P1;HPM_P2
2022/08/08 00:00:56;;;;;;;3.90;3.50;;;16.10;99.80;;;;;;5035279;28;20178;-80
2022/08/08 00:03:31;;;;;;;8.20;3.73;;;16.10;99.80;;;;;;5035143;28;20615;-80
2022/08/08 00:06:17;;;;;;;4.10;3.70;;;16.10;99.80;;;;;;5035040;28;20200;-80
2022/08/08 00:09:11;;;;;;;5.83;3.60;;;16.10;99.80;;;;;;5018566;28;20184;-80
2022/08/08 00:11:51;;;;;;;7.43;3.83;;;16.00;99.90;;;;;;5004521;28;20268;-81
2022/08/08 00:14:51;;;;;;;7.90;4.40;;;16.10;99.90;;;;;;5035807;28;20180;-80
2022/08/08 00:17:51;;;;;;;3.57;3.27;;;15.90;99.90;;;;;;5035451;28;20204;-80
2022/08/08 00:20:29;;;;;;;5.73;3.77;;;16.00;99.90;;;;;;5034881;28;20202;-80
2022/08/08 00:23:01;;;;;;;7.20;4.10;;;16.00;99.90;;;;;;5035740;28;20169;-80
2022/08/08 00:25:33;;;;;;;4.00;3.60;;;15.60;99.90;;;;;;5035450;28;20196;-80
2022/08/08 00:28:00;;;;;;;9.37;4.10;;;15.60;99.90;;;;;;5036200;28;20258;-80
2022/08/08 00:30:35;;;;;;;4.80;4.07;;;15.50;99.90;;;;;;5035719;28;20695;-80
2022/08/08 00:33:15;;;;;;;7.13;4.20;;;15.70;99.90;;;;;;5035655;28;20303;-80
2022/08/08 00:36:07;;;;;;;5.43;4.40;;;15.40;99.90;;;;;;5035532;28;20201;-80
2022/08/08 00:38:36;;;;;;;6.33;4.27;;;15.40;99.90;;;;;;5035497;28;20169;-80
2022/08/08 00:41:20;;;;;;;8.37;4.23;;;15.50;99.90;;;;;;5035224;28;20170;-81
2022/08/08 00:44:02;;;;;;;4.97;4.03;;;15.40;99.90;;;;;;5054746;28;20165;-81
2022/08/08 00:46:59;;;;;;;11.60;5.33;;;15.30;99.90;;;;;;5036832;28;20215;-81
2022/08/08 00:49:28;;;;;;;8.73;4.47;;;15.30;99.90;;;;;;5037050;28;20180;-80
2022/08/08 00:52:02;;;;;;;6.87;4.23;;;15.20;99.90;;;;;;5036840;28;20173;-80
2022/08/08 00:54:49;;;;;;;5.27;4.23;;;15.20;99.90;;;;;;5054182;28;20185;-81
2022/08/08 00:57:22;;;;;;;6.20;4.47;;;15.20;99.90;;;;;;5036979;28;20169;-81
2022/08/08 01:00:09;;;;;;;5.67;4.23;;;15.10;99.90;;;;;;5037029;28;20173;-81
2022/08/08 01:03:10;;;;;;;8.00;4.57;;;15.20;99.90;;;;;;5036651;28;20176;-81
2022/08/08 01:06:13;;;;;;;6.17;4.50;;;15.10;99.90;;;;;;5036727;28;20193;-80
2022/08/08 01:09:02;;;;;;;9.67;4.60;;;15.20;99.90;;;;;;5036748;28;20174;-80
2022/08/08 01:12:02;;;;;;;7.93;4.60;;;15.10;99.90;;;;;;5036192;28;20180;-80
2022/08/08 01:14:45;;;;;;;6.23;4.27;;;15.20;99.90;;;;;;5036078;28;20219;-80
2022/08/08 01:17:31;;;;;;;5.77;4.77;;;15.00;99.90;;;;;;5036407;28;20172;-81
2022/08/08 01:20:34;;;;;;;6.97;4.43;;;15.10;99.90;;;;;;5035880;28;20177;-81
2022/08/08 01:23:37;;;;;;;11.33;4.60;;;14.90;99.90;;;;;;5035887;28;20264;-80
2022/08/08 01:26:06;;;;;;;8.13;4.53;;;14.80;99.90;;;;;;5035687;28;20224;-81
2022/08/08 01:28:50;;;;;;;7.30;5.00;;;14.80;99.90;;;;;;5036462;28;20631;-81
2022/08/08 01:31:43;;;;;;;7.67;5.33;;;14.90;99.90;;;;;;5036601;28;20204;-81
2022/08/08 01:34:18;;;;;;;6.20;4.90;;;14.80;99.90;;;;;;5040308;28;20714;-81
2022/08/08 01:37:08;;;;;;;6.90;4.90;;;14.90;99.90;;;;;;5040098;28;20267;-80
2022/08/08 01:40:07;;;;;;;8.43;5.03;;;14.70;99.90;;;;;;5039804;28;20172;-80
2022/08/08 01:42:45;;;;;;;15.37;5.57;;;14.60;99.90;;;;;;5039956;28;20166;-82
2022/08/08 01:45:38;;;;;;;8.23;5.13;;;14.60;99.90;;;;;;5039577;28;20569;-82
2022/08/08 01:48:28;;;;;;;11.20;5.50;;;14.70;99.90;;;;;;5039601;28;20173;-81
2022/08/08 01:51:32;;;;;;;7.97;5.17;;;14.80;99.90;;;;;;5038889;28;20176;-80
2022/08/08 01:54:13;;;;;;;7.00;5.13;;;14.70;99.90;;;;;;5039415;28;20176;-81
2022/08/08 01:57:09;;;;;;;9.57;5.27;;;14.50;99.90;;;;;;5038942;28;20212;-81
2022/08/08 02:00:11;;;;;;;10.37;5.80;;;14.60;99.90;;;;;;5039483;28;20525;-81
2022/08/08 02:03:05;;;;;;;9.37;5.57;;;14.50;99.90;;;;;;5038563;28;20252;-81
2022/08/08 02:05:52;;;;;;;7.47;5.33;;;14.50;99.90;;;;;;5038896;28;20579;-81
2022/08/08 02:08:33;;;;;;;9.43;5.33;;;14.40;99.90;;;;;;5038908;28;20518;-81
2022/08/08 02:11:27;;;;;;;8.53;5.57;;;14.50;99.90;;;;;;5038312;28;20224;-81
2022/08/08 02:14:04;;;;;;;7.87;5.40;;;14.40;99.90;;;;;;5039075;28;20173;-80
2022/08/08 02:16:57;;;;;;;7.33;5.57;;;14.30;99.90;;;;;;5038761;28;20205;-81
2022/08/08 02:19:47;;;;;;;12.57;5.87;;;14.40;99.90;;;;;;5039004;28;20252;-81
2022/08/08 02:22:32;;;;;;;9.53;6.17;;;14.40;99.90;;;;;;5040880;28;20177;-82
2022/08/08 02:25:26;;;;;;;10.27;5.70;;;14.30;99.90;;;;;;5039988;28;20699;-82
2022/08/08 02:27:59;;;;;;;8.47;5.53;;;14.30;99.90;;;;;;5039940;28;20220;-81
2022/08/08 02:30:47;;;;;;;9.83;6.50;;;14.20;99.90;;;;;;5058562;28;20192;-82
2022/08/08 02:33:33;;;;;;;13.40;6.97;;;14.30;99.90;;;;;;5058234;28;20217;-82
2022/08/08 02:36:11;;;;;;;11.93;6.13;;;14.10;99.90;;;;;;5040148;28;20813;-81
2022/08/08 02:38:56;;;;;;;10.80;6.07;;;14.10;99.90;;;;;;5040444;28;20311;-81
2022/08/08 02:41:59;;;;;;;9.40;6.03;;;14.20;99.90;;;;;;5056705;28;20177;-81
2022/08/08 02:44:47;;;;;;;12.43;6.70;;;14.20;99.90;;;;;;4988810;28;20193;-81
2022/08/08 02:48:07;;;;;;;14.83;6.97;;;14.00;99.90;;;;;;5038249;28;20187;-81
2022/08/08 02:50:38;;;;;;;10.03;6.67;;;14.10;99.90;;;;;;4959183;28;20219;-81
2022/08/08 02:53:22;;;;;;;12.00;6.60;;;14.10;99.90;;;;;;5024539;28;20185;-81
2022/08/08 02:56:15;;;;;;;12.17;7.00;;;14.00;99.90;;;;;;5038212;28;20208;-81
2022/08/08 02:58:53;;;;;;;14.53;7.40;;;14.00;99.90;;;;;;5038215;28;20166;-80
2022/08/08 03:01:27;;;;;;;10.33;6.87;;;13.90;99.90;;;;;;5037689;28;20173;-81
2022/08/08 03:04:19;;;;;;;10.27;6.40;;;13.90;99.90;;;;;;5037716;28;20165;-80
2022/08/08 03:06:58;;;;;;;12.13;7.80;;;13.90;99.90;;;;;;5037087;28;20193;-81
2022/08/08 03:10:03;;;;;;;10.73;6.53;;;13.70;99.90;;;;;;5037224;28;20248;-80
2022/08/08 03:12:34;;;;;;;10.00;7.00;;;13.80;99.90;;;;;;4957965;28;20182;-80
2022/08/08 03:15:27;;;;;;;10.30;7.23;;;13.80;99.90;;;;;;4958265;28;20615;-80
2022/08/08 03:17:52;;;;;;;12.17;7.00;;;13.70;99.90;;;;;;5012521;28;20205;-81
2022/08/08 03:20:18;;;;;;;13.80;7.20;;;13.80;99.90;;;;;;5037587;28;20657;-81
2022/08/08 03:22:48;;;;;;;13.70;7.33;;;13.80;99.90;;;;;;5037597;28;20177;-81
2022/08/08 03:25:15;;;;;;;10.00;7.30;;;13.80;99.90;;;;;;5038449;28;20204;-81
2022/08/08 03:27:52;;;;;;;12.60;7.53;;;13.80;99.90;;;;;;5038826;28;20196;-81
2022/08/08 03:30:21;;;;;;;12.67;7.57;;;13.60;99.90;;;;;;5038497;28;20184;-80
2022/08/08 03:35:37;;;;;;;10.87;7.40;;;13.60;99.90;;;;;;5055721;28;20272;-81
2022/08/08 03:38:03;;;;;;;14.97;7.70;;;13.60;99.90;;;;;;5037285;28;20196;-81
2022/08/08 03:40:28;;;;;;;20.00;7.97;;;13.50;99.90;;;;;;5037478;28;20663;-81
2022/08/08 03:42:54;;;;;;;10.73;7.37;;;13.70;99.90;;;;;;5037909;28;20263;-79
2022/08/08 03:45:24;;;;;;;12.63;7.27;;;13.70;99.90;;;;;;5038490;28;20218;-79
2022/08/08 03:48:07;;;;;;;16.47;7.77;;;13.70;99.90;;;;;;5038374;28;20177;-79
2022/08/08 03:50:35;;;;;;;13.20;7.30;;;13.60;99.90;;;;;;5038053;28;20667;-79
2022/08/08 03:53:12;;;;;;;14.03;8.20;;;13.60;99.90;;;;;;5038315;28;20672;-79
2022/08/08 03:55:42;;;;;;;15.43;8.17;;;13.60;99.90;;;;;;5055579;28;20283;-79
2022/08/08 03:58:09;;;;;;;13.13;7.33;;;13.60;99.90;;;;;;5037100;28;20186;-81
2022/08/08 04:00:35;;;;;;;16.90;8.50;;;13.60;99.90;;;;;;5037664;28;20176;-79
2022/08/08 04:03:04;;;;;;;15.43;8.03;;;13.50;99.90;;;;;;5037276;28;20231;-79
2022/08/08 04:05:32;;;;;;;11.00;7.80;;;13.40;99.90;;;;;;5037476;28;20286;-78
2022/08/08 04:07:59;;;;;;;13.77;8.00;;;13.60;99.90;;;;;;5037141;28;20209;-81
2022/08/08 04:10:26;;;;;;;12.77;8.03;;;13.60;99.90;;;;;;5036825;28;20177;-81
2022/08/08 04:12:53;;;;;;;12.63;7.63;;;13.50;99.90;;;;;;5035478;28;20659;-80
2022/08/08 04:15:19;;;;;;;12.53;7.43;;;13.50;99.90;;;;;;5036318;28;20202;-78
2022/08/08 04:17:45;;;;;;;13.43;8.33;;;13.50;99.90;;;;;;5036180;28;20180;-78
2022/08/08 04:20:11;;;;;;;13.47;7.93;;;13.30;99.90;;;;;;5035952;28;20531;-79
2022/08/08 04:22:37;;;;;;;13.20;8.67;;;13.40;99.90;;;;;;5036383;28;20173;-80
2022/08/08 04:25:04;;;;;;;13.73;9.43;;;13.30;99.90;;;;;;5035919;28;20197;-81
2022/08/08 04:27:30;;;;;;;16.40;8.70;;;13.30;99.90;;;;;;5035825;28;20186;-80
2022/08/08 04:29:56;;;;;;;13.50;8.90;;;13.30;99.90;;;;;;5035121;28;20650;-80
2022/08/08 04:32:22;;;;;;;14.97;8.27;;;13.30;99.90;;;;;;5035426;28;20720;-80
2022/08/08 04:34:47;;;;;;;12.73;8.47;;;13.40;99.90;;;;;;5053570;28;20664;-80
2022/08/08 04:37:13;;;;;;;15.97;8.50;;;13.40;99.90;;;;;;5035497;28;20174;-80
2022/08/08 04:39:39;;;;;;;14.23;8.53;;;13.40;99.90;;;;;;5035563;28;20242;-80
2022/08/08 04:42:06;;;;;;;13.37;8.20;;;13.40;99.90;;;;;;5035433;28;20633;-81
2022/08/08 04:44:31;;;;;;;14.23;8.63;;;13.40;99.90;;;;;;5036010;28;20561;-80
2022/08/08 04:46:57;;;;;;;15.00;8.93;;;13.50;99.90;;;;;;5036129;28;20238;-80
2022/08/08 04:49:23;;;;;;;13.00;8.40;;;13.40;99.90;;;;;;5035460;28;20534;-80
2022/08/08 04:51:48;;;;;;;12.33;8.47;;;13.30;99.90;;;;;;5035619;28;20184;-80
2022/08/08 04:54:14;;;;;;;16.97;8.83;;;13.50;99.90;;;;;;5035576;28;20181;-80
2022/08/08 04:56:40;;;;;;;12.10;8.27;;;13.50;99.90;;;;;;5035760;28;20194;-80
2022/08/08 04:59:05;;;;;;;14.60;8.67;;;13.50;99.90;;;;;;5035580;28;20539;-80
2022/08/08 05:01:31;;;;;;;14.93;8.47;;;13.60;99.90;;;;;;5035584;28;20170;-80
2022/08/08 05:03:57;;;;;;;16.67;9.17;;;13.80;99.90;;;;;;5036191;28;20167;-80
2022/08/08 05:06:22;;;;;;;13.23;8.33;;;13.90;99.90;;;;;;5036411;28;20554;-81
2022/08/08 05:08:48;;;;;;;12.47;7.73;;;13.90;99.90;;;;;;5039637;28;20649;-81
2022/08/08 05:11:14;;;;;;;14.23;7.63;;;14.20;99.90;;;;;;5039477;28;20252;-80
2022/08/08 05:13:40;;;;;;;14.60;7.80;;;14.20;99.90;;;;;;5038988;28;20740;-80
2022/08/08 05:16:07;;;;;;;14.23;7.40;;;14.20;99.90;;;;;;5038485;28;20241;-80
2022/08/08 05:18:32;;;;;;;14.60;7.57;;;14.40;99.90;;;;;;5038204;28;20177;-80
2022/08/08 05:20:59;;;;;;;18.80;8.63;;;14.40;99.90;;;;;;5056127;28;20629;-80
2022/08/08 05:23:25;;;;;;;15.70;8.97;;;14.50;99.90;;;;;;5038415;28;20224;-80
2022/08/08 05:25:51;;;;;;;18.33;9.03;;;14.40;99.90;;;;;;5038424;28;20201;-80
2022/08/08 05:28:17;;;;;;;13.40;7.80;;;14.50;99.90;;;;;;5038314;28;20275;-80
2022/08/08 05:30:43;;;;;;;15.07;7.77;;;14.60;99.90;;;;;;5037760;28;20652;-79
2022/08/08 05:33:08;;;;;;;20.70;9.10;;;14.60;99.90;;;;;;5055909;28;20216;-80
2022/08/08 05:35:35;;;;;;;18.10;8.63;;;14.70;99.90;;;;;;5037823;28;20197;-80
2022/08/08 05:38:04;;;;;;;14.30;8.30;;;14.90;99.90;;;;;;5037898;28;20589;-80
2022/08/08 05:40:32;;;;;;;14.30;8.43;;;15.00;99.90;;;;;;5038062;28;20173;-80
2022/08/08 05:43:03;;;;;;;15.40;8.30;;;15.10;99.90;;;;;;5037673;28;20541;-80
2022/08/08 05:45:34;;;;;;;14.03;8.40;;;15.10;99.90;;;;;;5037762;28;20223;-80
2022/08/08 05:48:00;;;;;;;12.30;7.77;;;15.10;99.90;;;;;;5037581;28;20185;-80
2022/08/08 05:50:28;;;;;;;13.53;8.43;;;15.40;99.90;;;;;;5037664;28;20177;-80
2022/08/08 05:52:55;;;;;;;14.73;8.00;;;15.50;99.90;;;;;;5037337;28;20173;-80
2022/08/08 05:55:20;;;;;;;17.27;8.33;;;15.60;99.90;;;;;;5037367;28;20206;-80
2022/08/08 05:57:51;;;;;;;16.07;8.57;;;15.70;99.90;;;;;;5037387;28;20185;-81
2022/08/08 06:00:17;;;;;;;15.20;7.77;;;15.90;99.90;;;;;;5038027;28;20253;-79
2022/08/08 06:05:32;;;;;;;13.27;7.30;;;16.40;99.90;;;;;;5056945;28;20228;-81
2022/08/08 06:07:59;;;;;;;11.10;7.13;;;16.40;99.90;;;;;;5038795;28;20188;-80
2022/08/08 06:10:31;;;;;;;10.33;6.93;;;16.60;99.90;;;;;;5038238;28;20179;-81
2022/08/08 06:12:57;;;;;;;10.67;5.63;;;16.70;99.90;;;;;;5037732;28;20178;-81
2022/08/08 06:15:23;;;;;;;9.10;5.90;;;17.50;99.90;;;;;;5037941;28;20201;-81
2022/08/08 06:17:50;;;;;;;10.20;5.73;;;18.10;99.90;;;;;;5037649;28;20199;-80
2022/08/08 06:20:16;;;;;;;10.02;4.95;;;18.50;99.90;;;;;;5038635;28;20691;-80
2022/08/08 06:22:41;;;;;;;11.35;5.68;;;18.50;99.90;;;;;;5038705;28;20169;-80
2022/08/08 06:25:08;;;;;;;9.43;5.10;;;18.80;99.90;;;;;;5038872;28;20203;-79
2022/08/08 06:27:43;;;;;;;7.10;5.20;;;19.10;99.90;;;;;;5039035;28;20178;-82
2022/08/08 06:30:11;;;;;;;9.90;5.00;;;19.10;99.90;;;;;;5039174;28;20941;-82
2022/08/08 06:32:54;;;;;;;7.35;4.72;;;19.50;99.90;;;;;;5041893;28;20189;-83
2022/08/08 06:35:20;;;;;;;8.85;4.60;;;19.90;99.90;;;;;;5039126;28;20572;-85
2022/08/08 06:37:53;;;;;;;11.77;4.72;;;20.30;99.90;;;;;;5038367;28;20192;-82
2022/08/08 06:40:21;;;;;;;12.68;4.80;;;20.40;99.90;;;;;;5039227;28;20199;-83
2022/08/08 06:43:08;;;;;;;7.65;4.05;;;20.30;99.90;;;;;;5039850;28;20166;-83
2022/08/08 06:45:38;;;;;;;9.30;4.60;;;20.50;99.90;;;;;;5038037;28;20195;-83
2022/08/08 06:48:04;;;;;;;13.63;4.20;;;20.90;99.90;;;;;;5038130;28;20276;-84
2022/08/08 06:50:31;;;;;;;5.97;4.30;;;21.10;99.90;;;;;;5038517;28;20185;-83
2022/08/08 06:53:02;;;;;;;7.00;4.28;;;21.20;99.90;;;;;;5037831;28;20260;-84
2022/08/08 06:55:29;;;;;;;7.15;4.00;;;21.40;99.90;;;;;;5037718;28;20204;-84
2022/08/08 06:57:55;;;;;;;4.35;3.83;;;21.40;99.90;;;;;;5053540;28;20176;-82
2022/08/08 07:00:21;;;;;;;6.43;4.03;;;21.50;99.90;;;;;;5037899;28;20190;-83
2022/08/08 07:02:59;;;;;;;5.20;4.00;;;21.60;99.90;;;;;;5038795;28;20188;-82
2022/08/08 07:05:25;;;;;;;10.02;3.97;;;21.50;99.90;;;;;;5038059;28;20555;-83
2022/08/08 07:07:51;;;;;;;7.22;3.97;;;21.80;99.90;;;;;;5038757;28;20228;-83
2022/08/08 07:10:19;;;;;;;5.97;3.53;;;22.10;99.90;;;;;;5038557;28;20583;-83
2022/08/08 07:13:02;;;;;;;5.57;3.67;;;22.20;99.90;;;;;;5037857;28;20181;-83
2022/08/08 07:15:42;;;;;;;7.38;3.55;;;22.60;99.90;;;;;;5055332;28;20669;-84
2022/08/08 07:18:09;;;;;;;10.10;3.42;;;22.40;99.90;;;;;;5038321;28;20541;-83
2022/08/08 07:20:43;;;;;;;6.43;3.70;;;22.30;99.40;;;;;;5038734;28;20180;-83
2022/08/08 07:23:30;;;;;;;8.23;3.92;;;22.90;99.20;;;;;;5036909;28;20166;-82
2022/08/08 07:26:00;;;;;;;4.65;3.67;;;23.10;98.50;;;;;;5037503;28;20276;-84
2022/08/08 07:28:27;;;;;;;7.13;3.50;;;23.30;98.70;;;;;;5035242;28;20269;-82
2022/08/08 07:30:53;;;;;;;4.25;3.40;;;23.40;98.30;;;;;;5037383;28;20209;-82
2022/08/08 07:33:22;;;;;;;7.20;3.55;;;23.40;97.80;;;;;;5036283;28;20212;-84
2022/08/08 07:35:48;;;;;;;6.97;3.10;;;23.30;97.90;;;;;;5036459;28;20251;-83
2022/08/08 07:38:17;;;;;;;5.70;3.20;;;23.50;97.10;;;;;;5036821;28;20626;-82
2022/08/08 07:40:44;;;;;;;8.25;3.10;;;24.10;96.30;;;;;;5036630;28;20173;-83
2022/08/08 07:43:11;;;;;;;5.22;2.95;;;23.90;96.20;;;;;;5035085;28;20173;-84
2022/08/08 07:45:37;;;;;;;4.85;2.83;;;24.00;95.80;;;;;;5035390;28;20197;-84
2022/08/08 07:48:04;;;;;;;4.03;2.63;;;24.30;95.20;;;;;;5036002;28;20193;-84
2022/08/08 07:50:31;;;;;;;4.35;2.75;;;24.40;95.00;;;;;;5035515;28;20276;-83
2022/08/08 07:53:02;;;;;;;5.07;2.70;;;25.30;94.70;;;;;;5035567;28;20181;-84
2022/08/08 07:55:30;;;;;;;3.78;2.55;;;24.70;93.10;;;;;;5035682;28;20208;-82
2022/08/08 07:58:27;;;;;;;6.00;2.47;;;24.10;93.80;;;;;;5037073;28;20364;-82
2022/08/08 08:01:02;;;;;;;6.60;2.58;;;24.00;93.70;;;;;;5053016;28;20214;-82
2022/08/08 08:03:32;;;;;;;4.00;2.17;;;24.90;92.90;;;;;;5035400;28;20176;-82
2022/08/08 08:05:59;;;;;;;4.35;2.65;;;24.90;94.50;;;;;;5034723;28;20193;-84
2022/08/08 08:08:47;;;;;;;3.90;2.78;;;25.10;93.20;;;;;;5035450;28;20548;-81
2022/08/08 08:11:14;;;;;;;5.13;2.53;;;25.30;92.10;;;;;;5053836;28;20746;-81
2022/08/08 08:13:52;;;;;;;5.68;2.40;;;25.40;92.20;;;;;;5037454;28;20181;-82
2022/08/08 08:16:22;;;;;;;4.25;2.40;;;25.30;91.00;;;;;;5036660;28;20197;-82
2022/08/08 08:18:56;;;;;;;4.95;2.50;;;25.00;91.50;;;;;;5034823;28;20748;-80
2022/08/08 08:21:24;;;;;;;2.92;2.42;;;24.90;91.80;;;;;;5053005;28;20153;-83
2022/08/08 08:23:50;;;;;;;5.85;2.42;;;25.20;91.20;;;;;;5035814;28;20699;-80
2022/08/08 08:26:17;;;;;;;4.38;2.63;;;25.50;91.30;;;;;;5035944;28;20384;-83
2022/08/08 08:28:43;;;;;;;4.93;2.60;;;25.80;91.20;;;;;;5035122;28;20173;-81
2022/08/08 08:31:09;;;;;;;4.40;2.53;;;25.70;90.40;;;;;;5036328;28;20656;-83
2022/08/08 08:33:35;;;;;;;4.05;2.97;;;26.10;90.40;;;;;;5036387;28;20272;-84
2022/08/08 08:36:01;;;;;;;4.22;2.42;;;26.30;89.00;;;;;;5035086;28;20205;-84
2022/08/08 08:38:27;;;;;;;6.32;2.92;;;26.00;89.90;;;;;;5034815;28;20169;-82
2022/08/08 08:40:52;;;;;;;4.05;2.85;;;26.20;90.10;;;;;;5034629;28;20223;-83
2022/08/08 08:43:19;;;;;;;4.32;2.72;;;25.80;90.20;;;;;;5036133;28;20169;-84
2022/08/08 08:45:47;;;;;;;4.50;2.45;;;26.00;90.00;;;;;;5035688;28;20559;-84
2022/08/08 08:48:16;;;;;;;6.32;2.85;;;25.90;87.10;;;;;;5036764;28;20215;-83
2022/08/08 08:50:44;;;;;;;4.93;2.78;;;26.00;89.40;;;;;;5037554;28;20181;-84
2022/08/08 08:53:11;;;;;;;9.85;3.13;;;26.30;88.80;;;;;;5035439;28;20272;-84
2022/08/08 08:55:38;;;;;;;5.80;2.85;;;26.20;90.10;;;;;;5034881;28;20197;-83
2022/08/08 08:58:08;;;;;;;7.78;2.78;;;26.50;88.10;;;;;;5034931;28;20170;-84
2022/08/08 09:00:36;;;;;;;6.47;2.80;;;25.90;88.40;;;;;;5034707;28;20174;-83
2022/08/08 09:03:07;;;;;;;5.78;3.00;;;25.80;89.80;;;;;;5034514;28;20170;-83
2022/08/08 09:05:39;;;;;;;3.20;2.83;;;26.70;88.20;;;;;;5034997;28;20201;-82
2022/08/08 09:08:06;;;;;;;8.10;2.47;;;26.90;87.90;;;;;;5034699;28;20166;-81
2022/08/08 09:10:32;;;;;;;6.57;2.80;;;26.90;89.50;;;;;;5034569;28;20264;-81
2022/08/08 09:13:00;;;;;;;3.35;3.03;;;26.90;87.70;;;;;;5034282;28;20180;-83
2022/08/08 09:15:26;;;;;;;5.68;2.60;;;26.70;86.50;;;;;;5032292;28;20208;-84
2022/08/08 09:17:52;;;;;;;4.55;2.75;;;26.80;87.90;;;;;;5032482;28;20193;-83
2022/08/08 09:20:19;;;;;;;5.43;3.10;;;27.20;89.00;;;;;;5032868;28;20497;-84
2022/08/08 09:22:45;;;;;;;6.13;2.90;;;27.20;88.10;;;;;;5032690;28;20591;-81
2022/08/08 09:25:11;;;;;;;3.80;3.00;;;26.40;86.50;;;;;;5032652;28;20592;-84
2022/08/08 09:27:39;;;;;;;7.03;2.90;;;26.30;90.30;;;;;;5032849;28;20284;-84
2022/08/08 09:30:07;;;;;;;5.90;3.00;;;27.00;87.00;;;;;;5033665;28;20177;-83
2022/08/08 09:32:52;;;;;;;4.28;3.10;;;26.70;88.10;;;;;;5034453;28;20541;-84
2022/08/08 09:35:27;;;;;;;5.25;2.50;;;26.40;87.20;;;;;;5034625;28;20296;-83
2022/08/08 09:37:59;;;;;;;5.47;2.50;;;27.50;86.90;;;;;;5035900;28;20200;-85
2022/08/08 09:40:27;;;;;;;4.60;2.72;;;27.10;86.80;;;;;;5038859;28;20545;-85
2022/08/08 09:43:08;;;;;;;10.05;2.88;;;27.80;85.30;;;;;;5038343;28;20607;-86
2022/08/08 09:46:04;;;;;;;10.38;2.92;;;27.80;85.30;;;;;;5038425;28;20193;-85
2022/08/08 09:48:35;;;;;;;6.05;2.92;;;27.50;84.50;;;;;;5039167;28;20196;-86
2022/08/08 09:51:02;;;;;;;7.43;2.88;;;27.70;86.00;;;;;;5037872;28;20197;-85
2022/08/08 09:53:47;;;;;;;3.63;3.08;;;27.90;83.90;;;;;;5040272;28;20566;-86
2022/08/08 09:56:14;;;;;;;5.72;3.40;;;27.40;84.50;;;;;;5042091;28;20219;-86
2022/08/08 09:58:50;;;;;;;7.10;3.35;;;27.40;83.00;;;;;;5040656;28;20174;-85
2022/08/08 10:01:20;;;;;;;6.60;3.03;;;27.40;86.00;;;;;;5040286;28;20290;-87
2022/08/08 10:03:49;;;;;;;4.07;3.15;;;28.00;83.90;;;;;;5040129;28;20216;-85
2022/08/08 10:06:17;;;;;;;6.03;2.80;;;28.50;83.20;;;;;;5039444;28;20255;-83
2022/08/08 10:08:48;;;;;;;11.00;2.92;;;27.80;82.60;;;;;;5038383;28;20179;-85
2022/08/08 10:11:18;;;;;;;4.85;2.70;;;28.50;84.60;;;;;;5038423;28;20260;-84
2022/08/08 10:13:58;;;;;;;6.55;3.22;;;28.80;84.60;;;;;;5037728;28;20177;-83
2022/08/08 10:16:37;;;;;;;4.75;2.70;;;29.20;81.90;;;;;;5037476;28;20243;-83
2022/08/08 10:19:05;;;;;;;5.57;3.13;;;27.40;83.80;;;;;;5037203;28;20169;-84
2022/08/08 10:21:34;;;;;;;10.52;3.17;;;27.50;84.10;;;;;;5036790;28;20183;-85
2022/08/08 10:24:19;;;;;;;5.93;3.15;;;27.10;86.10;;;;;;5036616;28;20169;-83
2022/08/08 10:26:51;;;;;;;7.00;2.88;;;28.20;83.80;;;;;;5037251;28;20191;-82
2022/08/08 10:29:30;;;;;;;10.68;2.90;;;28.90;82.90;;;;;;5036046;28;20687;-83
2022/08/08 10:34:51;;;;;;;4.25;3.58;;;27.90;82.30;;;;;;5054758;28;20255;-84
2022/08/08 10:37:26;;;;;;;4.35;2.78;;;28.10;82.20;;;;;;5036787;28;20177;-83
2022/08/08 10:39:54;;;;;;;5.75;2.95;;;28.50;81.60;;;;;;5037480;28;20169;-84
2022/08/08 10:42:31;;;;;;;3.70;2.50;;;28.20;80.80;;;;;;5040121;28;20181;-83
2022/08/08 10:45:02;;;;;;;4.68;2.63;;;28.80;81.70;;;;;;5040110;28;20188;-83
2022/08/08 10:47:28;;;;;;;7.00;2.92;;;28.20;81.90;;;;;;5039454;28;20196;-84
2022/08/08 10:49:59;;;;;;;7.25;3.85;;;28.60;81.10;;;;;;5039175;28;20650;-85
2022/08/08 10:52:35;;;;;;;10.55;3.70;;;28.10;80.90;;;;;;5038430;28;20668;-83
2022/08/08 10:55:06;;;;;;;6.78;3.20;;;27.00;81.20;;;;;;5038680;28;20197;-84
2022/08/08 10:57:42;;;;;;;9.32;3.20;;;28.00;81.10;;;;;;5039885;28;20177;-85
2022/08/08 11:00:11;;;;;;;4.65;2.90;;;28.40;80.50;;;;;;5039191;28;20173;-84
2022/08/08 11:02:37;;;;;;;3.35;2.75;;;29.10;80.60;;;;;;5038966;28;20522;-83
2022/08/08 11:05:06;;;;;;;3.33;3.03;;;29.60;79.00;;;;;;5037798;28;20189;-85
2022/08/08 11:07:52;;;;;;;8.05;3.40;;;30.40;77.20;;;;;;5038204;28;20188;-82
2022/08/08 11:10:20;;;;;;;6.75;3.25;;;28.90;77.20;;;;;;5038520;28;20210;-82
2022/08/08 11:12:58;;;;;;;7.85;3.67;;;28.00;78.80;;;;;;5037968;28;20303;-84
2022/08/08 11:15:27;;;;;;;5.63;3.20;;;26.90;81.00;;;;;;5038196;28;20575;-83
2022/08/08 11:17:53;;;;;;;5.13;3.40;;;27.20;82.70;;;;;;5037649;28;20192;-83
2022/08/08 11:20:23;;;;;;;8.32;3.40;;;27.80;80.20;;;;;;5038022;28;20169;-81
2022/08/08 11:22:52;;;;;;;5.03;3.20;;;28.00;81.10;;;;;;5038002;28;20173;-83
2022/08/08 11:25:22;;;;;;;5.47;3.20;;;29.00;81.20;;;;;;5037703;28;20289;-83
2022/08/08 11:27:51;;;;;;;9.43;3.78;;;28.70;78.40;;;;;;5037683;28;20192;-85
2022/08/08 11:30:17;;;;;;;8.80;3.58;;;27.90;79.20;;;;;;5037197;28;20715;-82
2022/08/08 11:32:42;;;;;;;8.10;3.40;;;26.40;79.00;;;;;;5037992;28;20189;-83
2022/08/08 11:35:11;;;;;;;4.43;3.35;;;27.40;80.40;;;;;;5038483;28;20205;-82
2022/08/08 11:37:39;;;;;;;5.78;2.72;;;28.10;79.60;;;;;;5037666;28;20169;-83
2022/08/08 11:40:07;;;;;;;4.63;3.00;;;28.50;80.90;;;;;;5037080;28;20170;-83
2022/08/08 11:42:33;;;;;;;7.80;3.45;;;28.80;78.90;;;;;;5036106;28;20252;-83
2022/08/08 11:45:00;;;;;;;11.82;3.00;;;28.70;77.40;;;;;;5036836;28;20284;-83
2022/08/08 11:47:26;;;;;;;3.35;2.90;;;29.20;76.30;;;;;;5054822;28;20175;-81
2022/08/08 11:50:13;;;;;;;4.30;2.85;;;31.00;77.70;;;;;;5036942;28;20516;-83
2022/08/08 11:52:40;;;;;;;13.48;3.10;;;31.30;75.60;;;;;;5036374;28;20175;-83
2022/08/08 11:55:25;;;;;;;10.25;3.55;;;30.40;76.80;;;;;;5036683;28;20200;-82
2022/08/08 11:58:07;;;;;;;4.70;2.67;;;29.00;75.90;;;;;;5036643;28;20157;-83
2022/08/08 12:00:32;;;;;;;3.40;2.92;;;27.80;79.50;;;;;;5036729;28;20165;-84
2022/08/08 12:02:59;;;;;;;4.68;3.13;;;27.60;80.30;;;;;;5036731;28;20541;-83
2022/08/08 12:05:31;;;;;;;4.43;3.63;;;26.90;80.40;;;;;;5036499;28;20197;-82
2022/08/08 12:07:57;;;;;;;8.23;2.90;;;27.30;80.00;;;;;;5036016;28;20176;-83
2022/08/08 12:10:25;;;;;;;3.67;2.90;;;27.70;81.50;;;;;;5036945;28;20184;-82
2022/08/08 12:13:00;;;;;;;9.57;3.40;;;28.10;79.70;;;;;;5036790;28;20188;-83
2022/08/08 12:15:34;;;;;;;9.48;3.15;;;27.40;80.50;;;;;;5035340;28;20201;-83
2022/08/08 12:18:00;;;;;;;4.65;2.80;;;26.40;82.20;;;;;;5036247;28;20200;-83
2022/08/08 12:20:37;;;;;;;4.43;2.78;;;26.80;81.90;;;;;;5036381;28;20184;-81
2022/08/08 12:23:03;;;;;;;3.45;3.00;;;26.90;82.30;;;;;;5036552;28;20172;-83
2022/08/08 12:25:32;;;;;;;6.25;2.85;;;27.00;81.50;;;;;;5035755;28;20197;-84
2022/08/08 12:28:17;;;;;;;5.78;3.15;;;27.00;82.30;;;;;;5036795;28;20181;-82
2022/08/08 12:30:45;;;;;;;6.72;2.60;;;27.20;80.80;;;;;;5035783;28;20227;-82
2022/08/08 12:33:25;;;;;;;3.85;2.80;;;27.30;81.50;;;;;;5035949;28;20227;-82
2022/08/08 12:35:51;;;;;;;3.55;2.63;;;27.70;80.40;;;;;;5035846;28;20240;-82
2022/08/08 12:38:16;;;;;;;4.38;2.53;;;27.30;81.00;;;;;;5036236;28;20181;-82
2022/08/08 12:40:48;;;;;;;4.47;2.55;;;27.20;78.30;;;;;;5035465;28;20173;-83
2022/08/08 12:43:15;;;;;;;3.85;2.92;;;26.80;80.40;;;;;;5035764;28;20260;-84
2022/08/08 12:45:45;;;;;;;3.67;2.63;;;26.40;79.30;;;;;;5035291;28;20689;-82
2022/08/08 12:48:19;;;;;;;3.40;2.60;;;26.10;79.70;;;;;;5035583;28;20181;-83
2022/08/08 12:50:49;;;;;;;2.65;2.30;;;26.40;80.80;;;;;;5035586;28;20173;-81
2022/08/08 12:53:33;;;;;;;5.63;2.35;;;26.80;80.50;;;;;;5035263;28;20657;-82
2022/08/08 12:56:03;;;;;;;3.67;2.83;;;27.10;80.20;;;;;;5036142;28;20207;-82
2022/08/08 12:58:46;;;;;;;5.03;2.45;;;27.40;80.10;;;;;;5034877;28;20165;-81
2022/08/08 13:01:12;;;;;;;10.32;3.13;;;27.30;81.20;;;;;;5034820;28;20176;-81
2022/08/08 13:03:44;;;;;;;4.30;2.58;;;27.10;79.50;;;;;;5034699;28;20203;-81
2022/08/08 13:06:16;;;;;;;4.32;2.60;;;26.90;80.40;;;;;;5034713;28;20209;-81
2022/08/08 13:08:46;;;;;;;3.20;2.63;;;27.00;80.60;;;;;;5034200;28;20193;-82
2022/08/08 13:11:20;;;;;;;4.20;2.42;;;27.00;80.20;;;;;;5034625;28;20196;-81
2022/08/08 13:14:11;;;;;;;4.25;2.80;;;26.90;79.80;;;;;;5018211;28;20216;-81
2022/08/08 13:16:38;;;;;;;4.80;2.70;;;26.50;78.50;;;;;;5033535;28;20227;-81
2022/08/08 13:19:08;;;;;;;7.18;2.55;;;26.40;79.20;;;;;;5034537;28;20684;-82
2022/08/08 13:21:41;;;;;;;6.80;2.65;;;26.20;80.00;;;;;;5034868;28;20260;-81
2022/08/08 13:24:07;;;;;;;7.35;2.55;;;26.30;80.50;;;;;;5034701;28;20169;-81